Time;durP1;ratioP1;P1;durP2;ratioP2;P2;SDS_P1;SDS_P2;PMS_P1;PMS_P2;Temp;Humidity;BMP_temperature;BMP_pressure;BME280_temperature;BME280_humidity;BME280_pressure;Samples;Min_cycle;Max_cycle;Signal;HPM_P1;HPM_P2
2022/12/17 13:06:53;;;;;;;54.30;31.25;;;;;;;1.99;69.53;101916.34;5094202;28;20297;-67
2022/12/17 13:09:22;;;;;;;61.42;31.45;;;;;;;2.01;69.64;101906.91;5089731;28;20502;-67
2022/12/17 13:12:13;;;;;;;55.95;30.90;;;;;;;2.43;68.71;101909.69;5108437;28;20050;-67
2022/12/17 13:14:57;;;;;;;53.72;30.23;;;;;;;2.53;68.35;101902.63;5088074;28;20059;-68
2022/12/17 13:17:32;;;;;;;55.63;28.80;;;;;;;2.47;68.40;101902.75;5081113;28;20043;-68
2022/12/17 13:20:29;;;;;;;52.92;29.38;;;;;;;2.54;67.63;101898.88;5075628;28;20052;-67
2022/12/17 13:23:26;;;;;;;48.67;27.05;;;;;;;2.60;68.04;101902.56;5064614;28;20048;-69
2022/12/17 13:26:22;;;;;;;50.92;28.52;;;;;;;2.37;67.90;101900.59;5103762;28;20056;-67
2022/12/17 13:28:56;;;;;;;59.25;28.25;;;;;;;2.49;67.48;101900.63;5084910;28;20053;-70
2022/12/17 13:31:30;;;;;;;47.78;26.85;;;;;;;2.48;67.49;101899.78;5095475;28;20058;-70
2022/12/17 13:34:24;;;;;;;49.03;26.67;;;;;;;2.51;66.49;101907.47;5096947;28;20052;-67
2022/12/17 13:36:52;;;;;;;49.72;26.63;;;;;;;2.58;66.74;101901.97;5111662;28;20052;-69
2022/12/17 13:39:53;;;;;;;48.78;26.77;;;;;;;2.81;66.11;101899.28;5107715;28;20040;-68
2022/12/17 13:42:33;;;;;;;58.08;27.50;;;;;;;2.51;66.20;101896.59;5085570;28;20055;-68
2022/12/17 13:45:01;;;;;;;;;;;;;;;2.51;66.91;101903.94;5094702;28;20044;-67
2022/12/17 13:47:34;;;;;;;49.20;26.85;;;;;;;2.59;66.55;101904.44;5076144;28;19920;-67
2022/12/17 13:50:17;;;;;;;54.97;26.25;;;;;;;2.48;66.12;101901.66;5097254;28;20052;-66
2022/12/17 13:53:11;;;;;;;48.45;26.50;;;;;;;2.43;65.95;101890.66;5093872;28;20067;-69
2022/12/17 13:55:39;;;;;;;50.72;26.02;;;;;;;2.38;65.87;101898.69;5073911;28;20044;-68
2022/12/17 13:58:20;;;;;;;50.05;26.45;;;;;;;2.32;65.94;101891.47;5091947;28;20403;-66
2022/12/17 14:00:48;;;;;;;47.33;25.42;;;;;;;2.55;67.74;101897.81;5061642;28;20360;-69
2022/12/17 14:03:20;;;;;;;48.88;27.45;;;;;;;2.38;66.12;101895.97;5097835;28;20050;-69
2022/12/17 14:06:08;;;;;;;52.75;28.40;;;;;;;2.35;66.17;101886.41;5090886;28;20378;-70
2022/12/17 14:08:36;;;;;;;54.85;29.40;;;;;;;2.42;66.27;101898.00;5073524;28;20051;-70
2022/12/17 14:13:52;;;;;;;51.78;27.08;;;;;;;2.35;66.17;101900.00;5046783;28;20064;-71
2022/12/17 14:16:20;;;;;;;53.28;27.85;;;;;;;2.50;66.26;101905.81;5094553;28;20047;-69
2022/12/17 14:18:54;;;;;;;50.60;26.42;;;;;;;2.91;65.51;101899.56;5077479;28;20055;-70
2022/12/17 14:21:25;;;;;;;51.13;27.08;;;;;;;2.84;65.05;101904.28;5081749;28;20043;-70
2022/12/17 14:23:53;;;;;;;54.15;26.58;;;;;;;2.89;64.78;101901.69;5063054;28;20083;-70
2022/12/17 14:26:21;;;;;;;54.05;28.00;;;;;;;2.82;65.27;101904.50;5071932;28;20556;-71
2022/12/17 14:28:51;;;;;;;50.10;26.92;;;;;;;2.81;65.42;101907.44;5103002;28;20052;-70
2022/12/17 14:31:21;;;;;;;49.80;27.48;;;;;;;2.82;64.65;101911.84;5091653;28;20040;-71
2022/12/17 14:34:09;;;;;;;49.45;27.05;;;;;;;2.56;65.18;101914.97;5069830;28;20067;-68
2022/12/17 14:36:40;;;;;;;50.85;26.38;;;;;;;2.40;65.55;101915.59;5105519;28;20059;-69
2022/12/17 14:39:17;;;;;;;;;;;;;;;2.61;65.28;101902.31;5083087;28;20047;-70
2022/12/17 14:44:31;;;;;;;53.90;27.33;;;;;;;2.80;65.26;101911.22;5075643;28;20051;-71
2022/12/17 14:47:13;;;;;;;47.08;25.65;;;;;;;2.67;64.83;101912.25;5041484;28;20052;-71
2022/12/17 14:50:12;;;;;;;47.05;24.60;;;;;;;2.68;65.10;101922.09;5079382;28;20154;-70
2022/12/17 14:52:42;;;;;;;49.47;26.02;;;;;;;2.72;64.28;101914.31;5093154;28;20055;-69
2022/12/17 14:55:37;;;;;;;45.33;24.33;;;;;;;2.66;64.30;101901.63;5072720;28;20055;-69
2022/12/17 14:58:12;;;;;;;43.78;24.13;;;;;;;2.35;65.56;101901.88;5095273;28;20040;-69
2022/12/17 15:00:44;;;;;;;46.30;24.85;;;;;;;2.35;65.31;101891.84;5078431;28;20051;-69
2022/12/17 15:03:20;;;;;;;46.22;25.13;;;;;;;2.61;64.65;101893.31;5112700;28;20047;-69
2022/12/17 15:05:55;;;;;;;45.17;25.30;;;;;;;2.46;64.95;101901.91;5092427;28;20588;-69
2022/12/17 15:08:23;;;;;;;49.17;25.25;;;;;;;2.42;65.04;101903.44;5074087;28;20391;-68
2022/12/17 15:10:51;;;;;;;44.05;24.35;;;;;;;2.58;64.85;101901.97;5064696;28;20052;-69
2022/12/17 15:13:19;;;;;;;47.28;25.25;;;;;;;2.47;64.67;101906.28;5086080;28;20411;-68
2022/12/17 15:15:46;;;;;;;48.65;23.95;;;;;;;2.45;64.76;101897.53;5077147;28;20052;-69
2022/12/17 15:18:14;;;;;;;48.15;24.08;;;;;;;2.37;64.81;101911.47;5111602;28;20040;-70
2022/12/17 15:20:42;;;;;;;46.92;25.13;;;;;;;2.63;64.40;101899.38;5093058;28;20032;-70
2022/12/17 15:23:19;;;;;;;45.40;24.02;;;;;;;2.26;64.37;101906.81;5061029;28;20047;-69
2022/12/17 15:25:48;;;;;;;46.58;24.73;;;;;;;2.19;64.92;101895.19;5093766;28;20043;-68
2022/12/17 15:28:17;;;;;;;43.50;23.50;;;;;;;2.12;65.05;101898.00;5087163;28;20040;-69
2022/12/17 15:30:45;;;;;;;42.75;23.73;;;;;;;2.09;64.82;101890.28;5094176;28;20043;-70
2022/12/17 15:33:21;;;;;;;39.53;21.60;;;;;;;2.17;64.79;101889.97;5095217;28;20380;-71
2022/12/17 15:35:52;;;;;;;41.63;22.05;;;;;;;2.13;64.60;101905.09;5077866;28;20052;-69
2022/12/17 15:38:20;;;;;;;42.25;22.30;;;;;;;2.22;64.01;101908.31;5096318;28;20047;-67
2022/12/17 15:40:51;;;;;;;37.72;21.02;;;;;;;2.32;63.98;101922.19;5044785;28;20060;-70
2022/12/17 15:43:18;;;;;;;42.47;22.17;;;;;;;2.12;64.37;101914.31;5092659;28;20067;-68
2022/12/17 15:45:48;;;;;;;42.25;22.05;;;;;;;2.15;64.23;101911.13;5092235;28;20043;-68
2022/12/17 15:48:20;;;;;;;39.67;22.02;;;;;;;2.38;64.29;101910.41;5063343;28;20055;-68
2022/12/17 15:50:48;;;;;;;46.13;24.33;;;;;;;2.37;64.21;101916.06;5059791;28;20055;-68
2022/12/17 15:53:16;;;;;;;53.25;23.80;;;;;;;2.49;63.75;101922.38;5078002;28;20048;-68
2022/12/17 15:55:43;;;;;;;44.35;23.02;;;;;;;2.43;64.11;101918.69;5107005;28;20048;-68
2022/12/17 15:58:12;;;;;;;46.22;23.98;;;;;;;2.46;63.40;101928.28;5112005;28;20040;-70
2022/12/17 16:00:40;;;;;;;48.55;23.55;;;;;;;2.32;63.92;101929.53;5060844;28;20055;-67
2022/12/17 16:03:08;;;;;;;44.90;23.60;;;;;;;2.30;63.86;101930.56;5072529;28;20051;-68
2022/12/17 16:05:35;;;;;;;43.65;22.42;;;;;;;2.48;64.00;101932.41;5097674;28;20389;-67
2022/12/17 16:08:03;;;;;;;43.25;24.20;;;;;;;2.43;63.67;101940.44;5085158;28;20049;-67
2022/12/17 16:10:30;;;;;;;42.20;23.25;;;;;;;2.17;64.11;101933.47;5093390;28;20054;-70
2022/12/17 16:12:58;;;;;;;40.60;23.40;;;;;;;2.18;64.49;101935.13;5097692;28;20402;-67
2022/12/17 16:15:26;;;;;;;46.80;22.88;;;;;;;2.38;63.74;101928.59;5079822;28;20048;-66
2022/12/17 16:17:53;;;;;;;46.00;25.05;;;;;;;2.47;63.42;101935.38;5093046;28;20044;-67
2022/12/17 16:20:21;;;;;;;41.70;22.73;;;;;;;2.23;63.67;101937.16;5109987;28;20043;-66
2022/12/17 16:22:49;;;;;;;40.92;22.65;;;;;;;2.23;63.58;101939.88;5098740;28;20055;-71
2022/12/17 16:25:17;;;;;;;42.55;22.40;;;;;;;2.30;63.51;101927.84;5091741;28;20044;-69
2022/12/17 16:27:44;;;;;;;40.10;22.48;;;;;;;2.53;62.68;101920.88;5074379;28;20044;-68
2022/12/17 16:30:12;;;;;;;49.00;23.88;;;;;;;2.26;63.24;101925.81;5089682;28;20067;-66
2022/12/17 16:32:40;;;;;;;43.20;22.30;;;;;;;2.48;63.08;101926.13;5076068;28;20055;-68
2022/12/17 16:35:08;;;;;;;45.45;22.13;;;;;;;2.29;63.15;101922.66;5095433;28;20063;-68
2022/12/17 16:37:36;;;;;;;41.85;22.05;;;;;;;2.58;62.19;101924.53;5094561;28;20044;-67
2022/12/17 16:40:05;;;;;;;42.22;21.98;;;;;;;2.10;62.49;101926.44;5083377;28;20052;-67
2022/12/17 16:42:32;;;;;;;37.47;18.83;;;;;;;1.98;63.31;101939.13;5094585;28;20055;-67
2022/12/17 16:45:00;;;;;;;41.17;20.60;;;;;;;2.09;62.86;101944.63;5075584;28;20056;-70
2022/12/17 16:47:28;;;;;;;40.67;20.50;;;;;;;2.04;62.97;101933.63;5095486;28;20052;-70
2022/12/17 16:49:55;;;;;;;39.03;20.30;;;;;;;2.12;62.85;101929.78;5077003;28;20051;-70
2022/12/17 16:52:23;;;;;;;37.13;19.45;;;;;;;1.95;63.24;101923.31;5091712;28;20044;-71
2022/12/17 16:54:50;;;;;;;37.50;19.15;;;;;;;1.94;63.70;101914.31;5076408;28;20118;-69
2022/12/17 16:57:17;;;;;;;37.70;19.55;;;;;;;1.91;63.47;101914.78;5093411;28;20048;-67
2022/12/17 16:59:45;;;;;;;41.55;21.88;;;;;;;1.62;63.67;101925.56;5087704;28;20047;-69
2022/12/17 17:02:13;;;;;;;52.53;28.77;;;;;;;1.69;64.12;101931.75;5092866;28;20048;-68
2022/12/17 17:04:41;;;;;;;41.42;20.75;;;;;;;1.83;64.36;101925.13;5100114;28;20121;-68
2022/12/17 17:07:09;;;;;;;40.97;20.27;;;;;;;1.68;64.55;101933.63;5095934;28;20048;-68
2022/12/17 17:09:36;;;;;;;37.05;19.23;;;;;;;2.04;63.98;101941.78;5106714;28;20056;-69
2022/12/17 17:12:04;;;;;;;39.38;19.67;;;;;;;1.72;63.96;101940.28;5094095;28;20063;-68
2022/12/17 17:14:32;;;;;;;46.10;19.67;;;;;;;1.82;64.07;101932.44;5094064;28;20041;-68
2022/12/17 17:17:00;;;;;;;35.50;19.10;;;;;;;1.87;63.03;101923.59;5060094;28;20052;-67
2022/12/17 17:19:28;;;;;;;37.17;18.30;;;;;;;1.64;63.35;101921.56;5091539;28;20052;-66
2022/12/17 17:21:56;;;;;;;44.47;19.27;;;;;;;1.63;64.50;101932.66;5091278;28;20044;-68
2022/12/17 17:24:24;;;;;;;35.65;18.55;;;;;;;1.86;63.75;101936.38;5093773;28;20071;-69
2022/12/17 17:26:53;;;;;;;37.63;19.00;;;;;;;1.80;63.10;101926.38;5056652;28;20518;-68
2022/12/17 17:29:21;;;;;;;34.15;17.48;;;;;;;1.83;63.37;101923.22;5076711;28;20047;-68
2022/12/17 17:31:48;;;;;;;39.38;18.85;;;;;;;1.90;62.55;101928.59;5090729;28;22146;-67
2022/12/17 17:34:37;;;;;;;40.47;19.52;;;;;;;1.99;62.47;101940.78;5091655;28;20078;-69
2022/12/17 17:37:04;;;;;;;44.72;21.23;;;;;;;2.12;62.33;101940.66;5074775;28;20482;-68
2022/12/17 17:39:33;;;;;;;40.58;21.00;;;;;;;1.87;63.05;101948.03;5105212;28;20491;-68
2022/12/17 17:42:00;;;;;;;43.65;21.88;;;;;;;2.09;62.80;101950.06;5074883;28;20058;-68
2022/12/17 17:44:28;;;;;;;41.33;20.90;;;;;;;1.85;63.16;101958.28;5086214;28;20063;-67
2022/12/17 17:46:56;;;;;;;41.67;20.98;;;;;;;1.70;63.87;101964.13;5094072;28;20048;-66
2022/12/17 17:49:24;;;;;;;40.53;22.13;;;;;;;1.83;63.37;101960.44;5088312;28;20040;-67
2022/12/17 17:51:51;;;;;;;44.97;22.35;;;;;;;1.45;64.51;101962.50;5095142;28;20052;-67
2022/12/17 17:54:38;;;;;;;47.50;23.33;;;;;;;1.57;64.85;101947.13;5095460;28;20079;-68
2022/12/17 17:57:06;;;;;;;48.35;22.73;;;;;;;1.34;65.47;101945.06;5102904;28;20083;-67
2022/12/17 17:59:34;;;;;;;46.25;22.70;;;;;;;1.16;66.22;101950.44;5079364;28;20043;-68
2022/12/17 18:02:02;;;;;;;47.92;23.75;;;;;;;1.51;65.68;101942.59;5067998;28;20044;-67
2022/12/17 18:04:30;;;;;;;45.05;22.10;;;;;;;1.55;65.30;101944.63;5075278;28;20051;-68
2022/12/17 18:06:58;;;;;;;47.60;24.15;;;;;;;1.51;65.16;101948.84;5089841;28;20076;-66
2022/12/17 18:09:45;;;;;;;56.90;23.20;;;;;;;1.12;65.78;101936.47;5089145;28;20055;-67
2022/12/17 18:14:59;;;;;;;50.20;25.20;;;;;;;1.27;65.96;101922.56;5099168;28;20391;-66
2022/12/17 18:17:46;;;;;;;51.45;25.58;;;;;;;1.28;66.46;101916.09;5091658;28;20040;-66
2022/12/17 18:20:14;;;;;;;48.67;25.83;;;;;;;1.37;66.09;101920.19;5080867;28;20541;-67
2022/12/17 18:22:44;;;;;;;50.03;26.27;;;;;;;1.32;66.33;101921.91;5100611;28;20506;-66
2022/12/17 18:25:14;;;;;;;47.53;24.55;;;;;;;1.50;66.26;101930.06;5097028;28;20075;-67
2022/12/17 18:27:42;;;;;;;50.40;25.45;;;;;;;1.27;66.53;101936.16;5095649;28;20051;-66
2022/12/17 18:30:10;;;;;;;52.03;24.52;;;;;;;1.37;66.55;101941.88;5096593;28;20052;-66
2022/12/17 18:32:38;;;;;;;50.63;25.52;;;;;;;1.67;65.72;101929.28;5097599;28;20502;-66
2022/12/17 18:35:06;;;;;;;48.00;25.25;;;;;;;1.45;66.27;101929.94;5100195;28;20493;-65
2022/12/17 18:37:33;;;;;;;52.85;26.15;;;;;;;1.39;66.66;101937.06;5096561;28;20059;-66
2022/12/17 18:40:01;;;;;;;52.35;26.02;;;;;;;1.41;67.04;101942.28;5082912;28;20414;-66
2022/12/17 18:45:15;;;;;;;56.00;26.83;;;;;;;1.48;67.34;101943.03;5100601;28;20054;-67
2022/12/17 18:47:43;;;;;;;51.22;25.98;;;;;;;1.36;67.18;101951.06;5096827;28;20047;-69
2022/12/17 18:50:14;;;;;;;52.83;27.93;;;;;;;0.95;68.43;101950.81;5085363;28;20043;-72
2022/12/17 18:52:47;;;;;;;55.15;28.02;;;;;;;1.00;68.70;101969.97;5063760;28;20294;-71
2022/12/17 18:55:15;;;;;;;60.75;29.35;;;;;;;1.00;68.28;101973.50;5095625;28;20057;-70
2022/12/17 18:57:42;;;;;;;57.03;29.00;;;;;;;1.06;68.35;101979.94;5085876;28;20055;-71
2022/12/17 19:00:11;;;;;;;54.78;28.30;;;;;;;0.93;68.27;101978.16;5077698;28;20051;-71
2022/12/17 19:02:38;;;;;;;59.38;29.20;;;;;;;1.24;68.54;101968.31;5078186;28;20079;-72
2022/12/17 19:05:06;;;;;;;57.58;30.35;;;;;;;0.94;67.98;101977.09;5076315;28;20406;-70
2022/12/17 19:07:34;;;;;;;56.45;28.48;;;;;;;0.77;69.17;101978.66;5057901;28;20056;-69
2022/12/17 19:10:01;;;;;;;54.85;28.63;;;;;;;0.73;69.77;101979.34;5097117;28;20048;-72
2022/12/17 19:12:30;;;;;;;61.60;29.92;;;;;;;0.59;69.88;101970.47;5100481;28;20044;-69
2022/12/17 19:14:57;;;;;;;54.92;28.08;;;;;;;0.62;69.96;101972.72;5090196;28;20106;-70
2022/12/17 19:17:25;;;;;;;51.70;27.08;;;;;;;0.81;69.30;101974.47;5093386;28;20056;-72
2022/12/17 19:19:56;;;;;;;51.80;26.88;;;;;;;0.71;68.79;101965.16;5085124;28;20558;-68
2022/12/17 19:22:23;;;;;;;58.85;29.40;;;;;;;0.60;69.29;101974.81;5096218;28;20759;-71
2022/12/17 19:24:51;;;;;;;56.22;28.33;;;;;;;0.62;69.40;101977.31;5100305;28;20048;-69
2022/12/17 19:27:19;;;;;;;53.03;27.15;;;;;;;0.80;68.45;101977.41;5099055;28;20047;-68
2022/12/17 19:29:49;;;;;;;57.08;29.45;;;;;;;0.58;69.28;101974.19;5108986;28;20047;-71
2022/12/17 19:32:17;;;;;;;52.67;27.75;;;;;;;0.54;68.16;101970.25;5072377;28;20047;-71
2022/12/17 19:34:44;;;;;;;53.70;27.88;;;;;;;0.40;69.18;101975.97;5090842;28;20056;-70
2022/12/17 19:37:12;;;;;;;53.45;27.80;;;;;;;0.37;68.59;101970.97;5094839;28;20426;-71
2022/12/17 19:39:39;;;;;;;50.75;27.17;;;;;;;0.79;68.38;101967.59;5094938;28;20039;-71
2022/12/17 19:42:23;;;;;;;57.65;30.15;;;;;;;0.70;68.23;101967.03;5095320;28;20394;-71
2022/12/17 19:44:54;;;;;;;67.10;35.30;;;;;;;0.37;68.61;101962.84;5092949;28;20056;-71
2022/12/17 19:47:25;;;;;;;56.22;30.33;;;;;;;0.29;69.27;101966.66;5088972;28;20044;-70
2022/12/17 19:49:52;;;;;;;51.67;27.40;;;;;;;0.25;68.67;101964.56;5092662;28;20052;-69
2022/12/17 19:52:20;;;;;;;50.13;26.02;;;;;;;0.30;68.39;101973.72;5093496;28;20052;-69
2022/12/17 19:54:48;;;;;;;48.85;26.65;;;;;;;0.06;68.73;101957.34;5090216;28;20052;-69
2022/12/17 19:57:15;;;;;;;48.75;27.08;;;;;;;0.21;69.44;101955.22;5093914;28;20118;-69
2022/12/17 19:59:43;;;;;;;52.30;28.42;;;;;;;-0.18;69.76;101961.63;5089112;28;20044;-67
2022/12/17 20:02:10;;;;;;;61.25;30.65;;;;;;;-0.13;69.78;101978.06;5075379;28;20040;-67
2022/12/17 20:04:38;;;;;;;57.00;29.05;;;;;;;-0.17;70.42;101980.34;5092763;28;20048;-67
2022/12/17 20:07:06;;;;;;;62.13;29.98;;;;;;;-0.10;71.19;101985.75;5094645;28;20054;-67
2022/12/17 20:09:33;;;;;;;52.47;28.10;;;;;;;-0.12;69.99;101987.81;5092793;28;20052;-69
2022/12/17 20:12:01;;;;;;;53.67;27.77;;;;;;;-0.36;71.39;101996.63;5093226;28;20064;-72
2022/12/17 20:14:29;;;;;;;58.83;28.65;;;;;;;-0.05;70.46;101992.19;5089570;28;20044;-67
2022/12/17 20:16:58;;;;;;;54.05;27.20;;;;;;;-0.02;70.24;101988.22;5072229;28;20067;-68
2022/12/17 20:19:29;;;;;;;58.05;30.10;;;;;;;0.29;69.71;101998.31;5087703;28;20033;-67
2022/12/17 20:21:58;;;;;;;51.45;28.58;;;;;;;-0.16;69.95;102003.66;5074380;28;20066;-68
2022/12/17 20:24:27;;;;;;;53.13;28.45;;;;;;;0.12;70.25;101999.84;5084126;28;20082;-70
2022/12/17 20:26:59;;;;;;;57.78;30.98;;;;;;;0.06;69.77;102006.94;5096189;28;20062;-67
2022/12/17 20:29:26;;;;;;;61.50;31.73;;;;;;;0.13;69.92;102013.19;5091628;28;20039;-69
2022/12/17 20:31:54;;;;;;;54.00;28.80;;;;;;;-0.16;70.39;102010.97;5074068;28;20044;-69
2022/12/17 20:34:29;;;;;;;52.80;27.55;;;;;;;-0.09;69.95;102014.50;5090367;28;20048;-71
2022/12/17 20:36:56;;;;;;;51.72;28.50;;;;;;;-0.04;70.26;102018.25;5092649;28;20059;-68
2022/12/17 20:39:25;;;;;;;53.10;27.77;;;;;;;0.22;68.97;102001.06;5092038;28;20051;-68
2022/12/17 20:41:56;;;;;;;54.83;28.98;;;;;;;0.08;69.09;102013.00;5087793;28;20048;-69
2022/12/17 20:44:24;;;;;;;55.33;29.27;;;;;;;-0.05;69.68;102016.56;5076939;28;20043;-69
2022/12/17 20:46:51;;;;;;;54.30;28.25;;;;;;;-0.23;70.84;102015.56;5074150;28;20093;-68
2022/12/17 20:49:19;;;;;;;56.78;30.27;;;;;;;-0.09;70.39;102015.31;5087358;28;20052;-68
2022/12/17 20:51:48;;;;;;;60.67;30.80;;;;;;;-0.07;69.87;102013.22;5088807;28;20057;-68
2022/12/17 20:54:15;;;;;;;60.10;28.05;;;;;;;-0.21;70.38;102017.00;5073140;28;20048;-69
2022/12/17 20:56:43;;;;;;;54.97;29.15;;;;;;;-0.13;69.83;102019.50;5093719;28;20059;-67
2022/12/17 20:59:16;;;;;;;59.42;28.48;;;;;;;-0.19;70.53;102031.16;5088023;28;20040;-66
2022/12/17 21:01:44;;;;;;;51.40;27.95;;;;;;;-0.26;69.80;102037.63;5075980;28;20051;-67
2022/12/17 21:04:17;;;;;;;57.35;29.80;;;;;;;-0.37;70.46;102024.75;5082630;28;20051;-65
2022/12/17 21:06:46;;;;;;;57.55;29.13;;;;;;;-0.40;70.63;102025.19;5074723;28;20052;-69
2022/12/17 21:09:17;;;;;;;59.83;29.83;;;;;;;-0.30;70.36;102018.25;5107197;28;20051;-65
2022/12/17 21:11:44;;;;;;;57.50;29.17;;;;;;;-0.39;70.44;102019.56;5078679;28;20043;-67
2022/12/17 21:14:15;;;;;;;54.75;29.27;;;;;;;-0.37;70.27;102020.19;5104518;28;20370;-67
2022/12/17 21:16:43;;;;;;;58.28;31.48;;;;;;;-0.22;70.79;102014.50;5092956;28;20059;-68
2022/12/17 21:19:13;;;;;;;58.05;27.95;;;;;;;-0.23;70.26;102023.69;5093037;28;20063;-70
2022/12/17 21:21:41;;;;;;;57.15;29.50;;;;;;;-0.36;70.14;102026.41;5101414;28;20064;-68
2022/12/17 21:24:08;;;;;;;58.67;30.52;;;;;;;-0.38;70.22;102017.66;5093788;28;20063;-66
2022/12/17 21:26:38;;;;;;;58.70;30.23;;;;;;;-0.37;70.70;102014.75;5073148;28;20063;-70
2022/12/17 21:29:07;;;;;;;62.88;29.60;;;;;;;-0.38;70.33;102013.06;5088233;28;20054;-67
2022/12/17 21:31:39;;;;;;;57.50;29.73;;;;;;;-0.36;70.88;102007.44;5068447;28;20513;-67
2022/12/17 21:34:10;;;;;;;62.67;30.35;;;;;;;-0.46;70.67;102013.31;5094697;28;20059;-67
2022/12/17 21:36:38;;;;;;;59.38;29.83;;;;;;;-0.12;69.69;102013.03;5088289;28;20509;-68
2022/12/17 21:39:07;;;;;;;57.33;29.13;;;;;;;-0.49;70.27;102011.00;5068890;28;20505;-70
2022/12/17 21:41:37;;;;;;;63.85;29.83;;;;;;;-0.45;70.42;102004.13;5092577;28;20047;-69
2022/12/17 21:44:10;;;;;;;54.80;28.80;;;;;;;-0.75;70.99;101997.47;5063238;28;20059;-70
2022/12/17 21:46:39;;;;;;;56.72;28.65;;;;;;;-0.62;71.44;102002.06;5072540;28;20064;-70
2022/12/17 21:49:09;;;;;;;58.72;29.08;;;;;;;-0.83;71.65;102002.25;5091386;28;20059;-70
2022/12/17 21:51:36;;;;;;;53.13;27.45;;;;;;;-0.87;71.02;101999.16;5095375;28;20044;-70
2022/12/17 21:54:05;;;;;;;51.97;27.30;;;;;;;-0.69;71.75;101996.66;5097934;28;20048;-71
2022/12/17 21:56:36;;;;;;;61.35;28.92;;;;;;;-0.88;71.21;101993.94;5094891;28;20529;-70
2022/12/17 21:59:03;;;;;;;60.33;30.25;;;;;;;-1.00;71.68;101988.34;5100485;28;20043;-69
2022/12/17 22:01:32;;;;;;;52.22;27.30;;;;;;;-0.95;71.75;101975.03;5094200;28;20048;-70
2022/12/17 22:04:03;;;;;;;56.28;29.30;;;;;;;-0.99;71.84;101976.47;5079333;28;20054;-68
2022/12/17 22:06:37;;;;;;;56.47;30.45;;;;;;;-1.00;72.35;101974.81;5073085;28;20509;-76
2022/12/17 22:09:12;;;;;;;55.08;29.38;;;;;;;-0.84;71.95;101978.97;5092192;28;20059;-67
2022/12/17 22:14:47;;;;;;;55.72;28.67;;;;;;;-1.20;73.75;101966.69;5079801;28;20048;-71
2022/12/17 22:17:16;;;;;;;56.80;29.55;;;;;;;-1.16;73.24;101967.94;5090219;28;20044;-73
2022/12/17 22:19:44;;;;;;;59.75;31.52;;;;;;;-1.13;73.06;101978.34;5094815;28;20390;-71
2022/12/17 22:22:12;;;;;;;60.58;31.30;;;;;;;-1.13;73.53;101977.50;5089166;28;20051;-73
2022/12/17 22:24:39;;;;;;;59.00;28.70;;;;;;;-1.11;73.21;101972.72;5093769;28;20044;-72
2022/12/17 22:27:10;;;;;;;59.63;31.58;;;;;;;-0.97;73.07;101977.09;5095328;28;20044;-71
2022/12/17 22:35:12;;;;;;;71.70;33.67;;;;;;;-1.28;74.49;101969.59;5096686;28;20057;-71
2022/12/17 22:38:00;;;;;;;62.33;32.30;;;;;;;-1.29;74.02;101959.00;5098294;28;20051;-73
2022/12/17 22:40:48;;;;;;;65.75;32.88;;;;;;;-1.09;74.18;101967.94;5076487;28;20601;-72
2022/12/17 22:43:35;;;;;;;61.55;31.35;;;;;;;-0.94;73.24;101962.34;5095562;28;20056;-72
2022/12/17 22:46:23;;;;;;;63.33;31.75;;;;;;;-1.09;73.16;101967.94;5092829;28;20044;-73
2022/12/17 22:48:50;;;;;;;63.72;31.42;;;;;;;-1.21;74.41;101972.28;5097356;28;20067;-74
2022/12/17 22:51:19;;;;;;;67.35;32.05;;;;;;;-1.17;74.40;101970.84;5096815;28;20075;-72
2022/12/17 22:54:04;;;;;;;66.72;32.45;;;;;;;-1.37;74.84;101967.28;5077409;28;20044;-73
2022/12/17 22:56:42;;;;;;;65.30;31.63;;;;;;;-1.42;74.89;101965.19;5110806;27;20044;-72
2022/12/17 22:59:29;;;;;;;64.75;32.38;;;;;;;-1.55;75.25;101958.94;5073976;28;20060;-73
2022/12/17 23:01:57;;;;;;;69.78;33.00;;;;;;;-1.40;75.12;101956.88;5075148;28;20040;-73
2022/12/17 23:04:24;;;;;;;62.90;31.67;;;;;;;-1.26;75.00;101956.72;5096504;28;20040;-73
2022/12/17 23:06:52;;;;;;;69.53;32.58;;;;;;;-0.87;74.64;101947.75;5065734;28;20043;-72
2022/12/17 23:09:20;;;;;;;72.63;31.92;;;;;;;-1.22;74.17;101951.72;5095340;28;20075;-74
2022/12/17 23:11:47;;;;;;;64.43;31.67;;;;;;;-1.40;74.62;101943.38;5086844;28;20051;-72
2022/12/17 23:14:16;;;;;;;66.65;32.00;;;;;;;-1.49;75.13;101955.41;5061366;28;20051;-72
2022/12/17 23:16:44;;;;;;;65.28;31.63;;;;;;;-1.71;76.36;101948.50;5104240;28;20044;-72
2022/12/17 23:19:11;;;;;;;63.00;30.80;;;;;;;-1.55;75.58;101946.25;5094820;28;20498;-73
2022/12/17 23:21:39;;;;;;;63.40;31.27;;;;;;;-1.75;76.08;101944.53;5078135;28;20044;-73
2022/12/17 23:24:07;;;;;;;65.82;31.73;;;;;;;-1.68;75.87;101939.97;5092413;28;20052;-73
2022/12/17 23:26:36;;;;;;;67.70;32.97;;;;;;;-1.55;75.75;101929.22;5077563;28;20056;-72
2022/12/17 23:29:06;;;;;;;67.75;31.77;;;;;;;-1.42;76.11;101931.94;5110917;28;20070;-72
2022/12/17 23:31:37;;;;;;;69.20;33.20;;;;;;;-1.28;75.31;101936.31;5060771;28;20427;-73
2022/12/17 23:34:05;;;;;;;66.05;32.95;;;;;;;-1.44;75.30;101925.91;5105191;28;20059;-73
2022/12/17 23:36:34;;;;;;;68.70;32.95;;;;;;;-1.70;75.35;101934.78;5100361;28;20051;-72
2022/12/17 23:39:01;;;;;;;66.10;32.08;;;;;;;-1.38;75.32;101925.09;5115176;28;20047;-73
2022/12/17 23:41:30;;;;;;;70.35;32.58;;;;;;;-1.40;74.97;101921.75;5078512;28;20055;-72
2022/12/17 23:43:58;;;;;;;67.53;33.05;;;;;;;-1.73;75.23;101931.66;5111079;28;20044;-72
2022/12/17 23:46:27;;;;;;;67.88;33.72;;;;;;;-1.41;75.37;101926.31;5076337;28;20442;-72
2022/12/17 23:48:55;;;;;;;61.63;32.58;;;;;;;-1.47;75.72;101935.25;5075933;28;20051;-72
2022/12/17 23:51:24;;;;;;;66.05;32.25;;;;;;;-1.30;74.46;101931.13;5069700;28;20055;-72
2022/12/17 23:53:52;;;;;;;63.20;32.70;;;;;;;-1.35;74.89;101935.47;5095832;28;20059;-72
2022/12/17 23:56:23;;;;;;;68.85;33.97;;;;;;;-1.16;74.50;101934.66;5096892;28;20048;-72
2022/12/17 23:59:00;;;;;;;66.93;31.95;;;;;;;-1.36;73.93;101936.53;5117037;28;20051;-72
